createdAt,value
2019-02-09T00:00:01.995Z,7.31
2019-02-09T00:03:17.143Z,7.29
2019-02-09T00:06:47.638Z,7.35
2019-02-09T00:10:02.894Z,7.35
2019-02-09T00:13:18.143Z,7.38
2019-02-09T00:16:33.598Z,7.33
2019-02-09T00:19:49.858Z,7.24
2019-02-09T00:23:05.125Z,7.17
2019-02-09T00:26:20.371Z,7.12
2019-02-09T00:29:35.421Z,7.12
2019-02-09T00:32:50.978Z,7.10
2019-02-09T00:36:07.042Z,7.13
2019-02-09T00:39:22.294Z,7.15
2019-02-09T00:42:37.547Z,7.23
2019-02-09T00:45:52.695Z,7.29
2019-02-09T00:49:07.952Z,7.32
2019-02-09T00:52:23.199Z,7.44
2019-02-09T00:55:38.962Z,7.45
2019-02-09T00:58:54.107Z,7.52
2019-02-09T01:02:09.554Z,7.50
2019-02-09T01:05:36.642Z,7.51
2019-02-09T01:08:51.934Z,7.20
2019-02-09T01:12:07.186Z,7.11
2019-02-09T01:15:22.399Z,7.05
2019-02-09T01:18:37.587Z,6.94
2019-02-09T01:21:53.142Z,6.84
2019-02-09T01:25:08.406Z,6.77
2019-02-09T01:28:23.850Z,6.65
2019-02-09T01:31:39.206Z,6.55
2019-02-09T01:34:54.795Z,6.52
2019-02-09T01:38:09.886Z,6.37
2019-02-09T01:41:25.165Z,6.38
2019-02-09T01:44:40.718Z,6.30
2019-02-09T01:47:56.179Z,6.31
2019-02-09T01:51:11.423Z,6.35
2019-02-09T01:54:26.674Z,6.29
2019-02-09T01:57:42.027Z,6.31
2019-02-09T02:00:57.691Z,6.26
2019-02-09T02:04:13.247Z,6.30
2019-02-09T02:07:28.703Z,6.33
2019-02-09T02:10:44.155Z,6.27
2019-02-09T02:14:00.624Z,6.20
2019-02-09T02:17:16.183Z,6.17
2019-02-09T02:20:31.578Z,6.16
2019-02-09T02:23:47.002Z,6.09
2019-02-09T02:27:02.476Z,6.14
2019-02-09T02:30:22.923Z,6.11
2019-02-09T02:33:37.772Z,6.10
2019-02-09T02:36:53.117Z,6.14
2019-02-09T02:40:08.329Z,6.15
2019-02-09T02:43:23.725Z,6.16
2019-02-09T02:46:39.097Z,6.01
2019-02-09T02:49:54.326Z,5.98
2019-02-09T02:53:09.902Z,5.93
2019-02-09T02:56:25.242Z,5.85
2019-02-09T02:59:40.386Z,5.89
2019-02-09T03:02:56.396Z,5.95
2019-02-09T03:06:11.643Z,5.91
2019-02-09T03:09:27.073Z,5.94
2019-02-09T03:12:42.444Z,5.95
2019-02-09T03:15:58.067Z,5.94
2019-02-09T03:19:13.327Z,6.04
2019-02-09T03:22:28.684Z,6.02
2019-02-09T03:25:44.053Z,6.05
2019-02-09T03:28:59.183Z,6.15
2019-02-09T03:32:14.433Z,6.14
2019-02-09T03:35:30.191Z,6.14
2019-02-09T03:38:45.654Z,6.17
2019-02-09T03:42:01.209Z,6.23
2019-02-09T03:45:19.106Z,6.26
2019-02-09T03:48:34.573Z,6.29
2019-02-09T03:51:50.385Z,6.34
2019-02-09T03:55:05.382Z,6.33
2019-02-09T03:58:20.826Z,6.40
2019-02-09T04:01:36.272Z,6.48
2019-02-09T04:04:51.340Z,6.48
2019-02-09T04:08:06.658Z,6.52
2019-02-09T04:11:22.150Z,6.48
2019-02-09T04:14:37.511Z,6.48
2019-02-09T04:17:52.732Z,6.46
2019-02-09T04:21:07.671Z,6.50
2019-02-09T04:24:23.158Z,6.59
2019-02-09T04:27:39.311Z,6.59
2019-02-09T04:31:04.987Z,6.62
2019-02-09T04:34:12.282Z,6.62
2019-02-09T04:37:27.826Z,6.49
2019-02-09T04:40:43.290Z,6.47
2019-02-09T04:43:58.751Z,6.55
2019-02-09T04:47:13.898Z,6.49
2019-02-09T04:50:29.453Z,6.31
2019-02-09T04:53:44.941Z,6.34
2019-02-09T04:57:00.494Z,6.24
2019-02-09T05:00:18.242Z,6.16
2019-02-09T05:03:33.645Z,6.06
2019-02-09T05:06:49.020Z,6.17
2019-02-09T05:10:05.543Z,6.22
2019-02-09T05:13:20.717Z,6.26
2019-02-09T05:16:36.024Z,6.13
2019-02-09T05:19:52.041Z,6.19
2019-02-09T05:23:08.304Z,6.15
2019-02-09T05:26:23.461Z,6.10
2019-02-09T05:29:38.830Z,6.05
2019-02-09T05:32:54.001Z,6.03
2019-02-09T05:36:09.314Z,6.01
2019-02-09T05:39:25.167Z,6.05
2019-02-09T05:42:40.394Z,6.04
2019-02-09T05:45:55.690Z,6.06
2019-02-09T05:49:11.009Z,6.15
2019-02-09T05:52:26.152Z,6.13
2019-02-09T05:55:41.208Z,6.14
2019-02-09T05:58:56.379Z,6.19
2019-02-09T06:02:11.851Z,6.18
2019-02-09T06:05:27.089Z,6.31
2019-02-09T06:08:43.109Z,6.36
2019-02-09T06:11:58.425Z,6.22
2019-02-09T06:15:14.664Z,6.23
2019-02-09T06:18:29.930Z,6.29
2019-02-09T06:21:45.487Z,6.31
2019-02-09T06:25:00.938Z,6.30
2019-02-09T06:28:16.405Z,6.40
2019-02-09T06:31:40.237Z,6.31
2019-02-09T06:34:48.945Z,6.33
2019-02-09T06:38:04.421Z,6.37
2019-02-09T06:41:19.856Z,6.44
2019-02-09T06:44:35.195Z,6.35
2019-02-09T06:47:50.892Z,6.44
2019-02-09T06:51:05.846Z,6.45
2019-02-09T06:54:21.475Z,6.36
2019-02-09T06:57:36.600Z,6.20
2019-02-09T07:00:52.015Z,6.17
2019-02-09T07:04:07.429Z,6.27
2019-02-09T07:07:22.682Z,6.21
2019-02-09T07:10:38.381Z,6.24
2019-02-09T07:13:53.794Z,6.29
2019-02-09T07:17:08.948Z,6.41
2019-02-09T07:20:24.196Z,6.38
2019-02-09T07:23:39.758Z,6.41
2019-02-09T07:26:54.898Z,6.38
2019-02-09T07:30:13.891Z,6.42
2019-02-09T07:33:29.411Z,6.47
2019-02-09T07:36:44.840Z,6.52
2019-02-09T07:40:00.354Z,6.45
2019-02-09T07:43:15.658Z,6.58
2019-02-09T07:46:31.181Z,6.67
2019-02-09T07:49:46.765Z,6.58
2019-02-09T07:53:02.428Z,6.67
2019-02-09T07:56:17.759Z,6.73
2019-02-09T07:59:32.952Z,6.78
2019-02-09T08:02:48.482Z,6.91
2019-02-09T08:06:04.462Z,6.95
2019-02-09T08:09:19.729Z,7.03
2019-02-09T08:12:35.111Z,7.06
2019-02-09T08:15:50.454Z,7.09
2019-02-09T08:19:05.679Z,7.11
2019-02-09T08:22:21.133Z,7.17
2019-02-09T08:25:36.378Z,7.24
2019-02-09T08:28:51.736Z,7.42
2019-02-09T08:32:12.475Z,7.43
2019-02-09T08:35:24.392Z,7.55
2019-02-09T08:38:39.873Z,7.51
2019-02-09T08:41:55.195Z,7.45
2019-02-09T08:45:13.094Z,7.33
2019-02-09T08:48:28.653Z,7.22
2019-02-09T08:51:44.220Z,7.11
2019-02-09T08:54:59.575Z,7.18
2019-02-09T08:58:14.838Z,7.24
2019-02-09T09:01:31.013Z,7.44
2019-02-09T09:04:46.463Z,7.38
2019-02-09T09:08:02.470Z,7.32
2019-02-09T09:11:18.277Z,7.31
2019-02-09T09:14:33.847Z,7.16
2019-02-09T09:17:49.201Z,7.13
2019-02-09T09:21:04.675Z,7.06
2019-02-09T09:24:19.908Z,7.19
2019-02-09T09:27:35.363Z,7.46
2019-02-09T09:30:51.114Z,7.79
2019-02-09T09:34:06.275Z,7.98
2019-02-09T09:37:21.558Z,8.19
2019-02-09T09:40:39.110Z,8.68
2019-02-09T09:43:54.586Z,8.84
2019-02-09T09:47:10.157Z,8.83
2019-02-09T09:50:26.156Z,8.96
2019-02-09T09:53:41.562Z,9.09
2019-02-09T09:56:56.817Z,9.18
2019-02-09T10:00:12.551Z,8.79
2019-02-09T10:03:28.742Z,8.53
2019-02-09T10:06:44.104Z,8.50
2019-02-09T10:09:59.461Z,8.61
2019-02-09T10:13:14.732Z,8.55
2019-02-09T10:16:30.270Z,8.77
2019-02-09T10:19:45.829Z,9.03
2019-02-09T10:23:00.941Z,9.28
2019-02-09T10:26:16.348Z,9.27
2019-02-09T10:29:31.684Z,9.34
2019-02-09T10:32:47.036Z,9.42
2019-02-09T10:36:02.289Z,9.59
2019-02-09T10:39:17.739Z,9.53
2019-02-09T10:42:33.603Z,9.79
2019-02-09T10:45:49.000Z,10.01
2019-02-09T10:49:04.835Z,9.93
2019-02-09T10:52:20.278Z,9.63
2019-02-09T10:55:35.745Z,9.25
2019-02-09T10:58:51.080Z,8.65
2019-02-09T11:02:06.796Z,8.21
2019-02-09T11:05:22.023Z,7.62
2019-02-09T11:08:37.354Z,7.38
2019-02-09T11:11:53.004Z,7.34
2019-02-09T11:15:10.498Z,7.35
2019-02-09T11:18:26.175Z,7.66
2019-02-09T11:21:41.533Z,7.87
2019-02-09T11:24:57.182Z,8.17
2019-02-09T11:28:12.838Z,8.68
2019-02-09T11:31:28.319Z,9.10
2019-02-09T11:34:43.866Z,9.26
2019-02-09T11:37:59.169Z,9.08
2019-02-09T11:41:14.440Z,9.11
2019-02-09T11:44:29.833Z,9.14
2019-02-09T11:47:45.294Z,9.31
2019-02-09T11:51:00.857Z,9.35
2019-02-09T11:54:16.192Z,9.31
2019-02-09T11:57:31.648Z,9.50
2019-02-09T12:00:49.659Z,9.44
2019-02-09T12:04:04.828Z,9.65
2019-02-09T12:07:21.065Z,9.58
2019-02-09T12:10:36.552Z,9.96
2019-02-09T12:13:55.471Z,10.05
2019-02-09T12:17:11.349Z,10.11
2019-02-09T12:20:26.993Z,10.47
2019-02-09T12:23:42.785Z,10.29
2019-02-09T12:26:58.799Z,10.21
2019-02-09T12:30:17.217Z,10.03
2019-02-09T12:33:33.429Z,9.60
2019-02-09T12:36:48.899Z,9.55
2019-02-09T12:40:04.236Z,9.33
2019-02-09T12:43:19.608Z,9.20
2019-02-09T12:46:35.568Z,9.15
2019-02-09T12:49:50.835Z,9.41
2019-02-09T12:53:06.271Z,9.74
2019-02-09T12:56:22.538Z,9.83
2019-02-09T12:59:38.002Z,10.00
2019-02-09T13:02:53.239Z,10.02
2019-02-09T13:06:08.805Z,9.85
2019-02-09T13:09:25.787Z,10.01
2019-02-09T13:12:41.557Z,10.25
2019-02-09T13:15:57.849Z,10.50
2019-02-09T13:19:13.182Z,10.71
2019-02-09T13:22:28.990Z,10.23
2019-02-09T13:25:44.409Z,9.88
2019-02-09T13:28:59.954Z,9.95
2019-02-09T13:32:15.267Z,9.90
2019-02-09T13:35:30.662Z,9.91
2019-02-09T13:38:46.294Z,9.97
2019-02-09T13:42:01.813Z,10.02
2019-02-09T13:45:37.512Z,10.11
2019-02-09T13:48:52.799Z,9.76
2019-02-09T13:52:08.204Z,9.38
2019-02-09T13:55:23.786Z,9.01
2019-02-09T13:58:39.157Z,8.73
2019-02-09T14:01:54.358Z,8.80
2019-02-09T14:05:10.159Z,8.88
2019-02-09T14:08:25.322Z,8.82
2019-02-09T14:11:41.430Z,8.98
2019-02-09T14:14:56.980Z,9.02
2019-02-09T14:18:12.541Z,8.96
2019-02-09T14:21:28.282Z,8.95
2019-02-09T14:24:43.962Z,8.98
2019-02-09T14:28:00.491Z,9.03
2019-02-09T14:31:15.777Z,9.18
2019-02-09T14:34:31.389Z,9.22
2019-02-09T14:37:47.169Z,9.29
2019-02-09T14:41:02.306Z,9.19
2019-02-09T14:44:18.572Z,9.21
2019-02-09T14:47:34.035Z,9.27
2019-02-09T14:50:49.486Z,9.41
2019-02-09T14:54:04.672Z,9.41
2019-02-09T14:57:20.038Z,9.29
2019-02-09T15:00:38.212Z,9.25
2019-02-09T15:04:02.474Z,9.13
2019-02-09T15:07:12.805Z,9.26
2019-02-09T15:10:28.234Z,9.25
2019-02-09T15:13:43.823Z,9.11
2019-02-09T15:17:05.389Z,9.01
2019-02-09T15:20:18.602Z,9.02
2019-02-09T15:23:34.066Z,9.02
2019-02-09T15:26:50.631Z,9.05
2019-02-09T15:30:07.135Z,9.04
2019-02-09T15:33:22.730Z,8.94
2019-02-09T15:36:37.932Z,8.99
2019-02-09T15:39:53.581Z,8.92
2019-02-09T15:43:09.282Z,9.03
2019-02-09T15:46:24.750Z,8.62
2019-02-09T15:49:39.879Z,8.30
2019-02-09T15:52:55.133Z,8.19
2019-02-09T15:56:10.379Z,8.03
2019-02-09T15:59:25.732Z,7.95
2019-02-09T16:02:41.247Z,7.80
2019-02-09T16:05:57.712Z,7.67
2019-02-09T16:09:13.157Z,7.76
2019-02-09T16:12:28.872Z,7.60
2019-02-09T16:15:44.235Z,7.53
2019-02-09T16:18:59.927Z,7.44
2019-02-09T16:22:15.588Z,7.40
2019-02-09T16:25:30.780Z,7.34
2019-02-09T16:28:46.272Z,7.37
2019-02-09T16:32:01.726Z,7.22
2019-02-09T16:35:18.213Z,7.22
2019-02-09T16:38:33.752Z,7.22
2019-02-09T16:41:49.253Z,7.13
2019-02-09T16:45:05.345Z,6.99
2019-02-09T16:48:21.971Z,6.94
2019-02-09T16:51:37.390Z,6.78
2019-02-09T16:54:52.779Z,6.80
2019-02-09T16:58:09.080Z,6.93
2019-02-09T17:01:24.302Z,6.87
2019-02-09T17:04:39.416Z,7.06
2019-02-09T17:07:54.828Z,7.07
2019-02-09T17:11:10.076Z,6.99
2019-02-09T17:14:25.326Z,7.00
2019-02-09T17:17:40.921Z,7.08
2019-02-09T17:20:56.319Z,7.08
2019-02-09T17:24:11.662Z,7.09
2019-02-09T17:27:26.889Z,7.04
2019-02-09T17:30:42.243Z,7.04
2019-02-09T17:33:57.426Z,6.90
2019-02-09T17:37:12.648Z,6.83
2019-02-09T17:40:30.627Z,6.80
2019-02-09T17:43:45.944Z,6.81
2019-02-09T17:47:01.271Z,6.85
2019-02-09T17:50:17.052Z,6.95
2019-02-09T17:53:32.278Z,6.89
2019-02-09T17:56:47.654Z,6.80
2019-02-09T18:00:03.288Z,6.86
2019-02-09T18:03:18.715Z,6.94
2019-02-09T18:06:33.840Z,6.87
2019-02-09T18:09:49.822Z,6.87
2019-02-09T18:13:05.177Z,6.90
2019-02-09T18:16:20.702Z,6.83
2019-02-09T18:19:36.182Z,6.85
2019-02-09T18:22:51.543Z,6.78
2019-02-09T18:26:06.971Z,6.75
2019-02-09T18:29:22.674Z,6.78
2019-02-09T18:32:37.897Z,6.83
2019-02-09T18:35:53.559Z,6.90
2019-02-09T18:39:10.767Z,6.83
2019-02-09T18:42:26.291Z,6.78
2019-02-09T18:45:41.841Z,6.74
2019-02-09T18:48:57.341Z,6.81
2019-02-09T18:52:12.913Z,6.81
2019-02-09T18:55:28.205Z,6.83
2019-02-09T18:58:43.775Z,6.74
2019-02-09T19:01:59.682Z,6.77
2019-02-09T19:05:15.400Z,6.82
2019-02-09T19:08:30.811Z,6.77
2019-02-09T19:11:46.870Z,6.73
2019-02-09T19:15:02.382Z,6.70
2019-02-09T19:18:17.635Z,6.69
2019-02-09T19:21:33.244Z,6.69
2019-02-09T19:24:48.651Z,6.84
2019-02-09T19:28:04.299Z,6.77
2019-02-09T19:31:19.767Z,6.69
2019-02-09T19:34:34.360Z,6.68
2019-02-09T19:37:49.984Z,6.71
2019-02-09T19:41:05.711Z,6.49
2019-02-09T19:44:21.018Z,6.58
2019-02-09T19:47:37.427Z,6.69
2019-02-09T19:50:52.896Z,6.65
2019-02-09T19:54:08.106Z,6.64
2019-02-09T19:57:23.183Z,6.65
2019-02-09T20:00:40.674Z,6.63
2019-02-09T20:03:55.855Z,6.67
2019-02-09T20:07:11.311Z,6.64
2019-02-09T20:10:29.217Z,6.73
2019-02-09T20:13:44.799Z,6.64
2019-02-09T20:17:00.136Z,6.67
2019-02-09T20:20:15.828Z,6.74
2019-02-09T20:23:31.049Z,6.71
2019-02-09T20:26:46.802Z,6.68
2019-02-09T20:30:02.265Z,6.66
2019-02-09T20:33:17.620Z,6.68
2019-02-09T20:36:33.226Z,6.59
2019-02-09T20:39:49.156Z,6.61
2019-02-09T20:43:04.499Z,6.61
2019-02-09T20:46:20.056Z,6.53
2019-02-09T20:49:35.325Z,6.59
2019-02-09T20:52:50.758Z,6.38
2019-02-09T20:56:07.023Z,6.35
2019-02-09T20:59:22.389Z,6.43
2019-02-09T21:02:37.751Z,6.41
2019-02-09T21:05:52.997Z,6.48
2019-02-09T21:09:07.937Z,6.49
2019-02-09T21:12:23.391Z,6.44
2019-02-09T21:15:38.498Z,6.58
2019-02-09T21:18:54.594Z,6.62
2019-02-09T21:22:10.096Z,6.62
2019-02-09T21:25:33.414Z,6.66
2019-02-09T21:28:49.444Z,6.72
2019-02-09T21:32:04.504Z,6.63
2019-02-09T21:35:19.735Z,6.63
2019-02-09T21:38:35.017Z,6.75
2019-02-09T21:41:50.586Z,6.70
2019-02-09T21:45:06.268Z,6.65
2019-02-09T21:48:22.909Z,6.65
2019-02-09T21:51:38.376Z,6.62
2019-02-09T21:54:53.628Z,6.64
2019-02-09T21:58:08.960Z,6.68
2019-02-09T22:01:24.097Z,6.65
2019-02-09T22:04:39.388Z,6.56
2019-02-09T22:07:54.940Z,6.55
2019-02-09T22:11:10.601Z,6.60
2019-02-09T22:14:26.403Z,6.57
2019-02-09T22:17:41.775Z,6.47
2019-02-09T22:20:57.064Z,6.55
2019-02-09T22:24:12.422Z,6.57
2019-02-09T22:27:27.983Z,6.58
2019-02-09T22:30:43.706Z,6.49
2019-02-09T22:33:59.254Z,6.45
2019-02-09T22:37:14.356Z,6.53
2019-02-09T22:40:30.818Z,6.57
2019-02-09T22:43:46.478Z,6.63
2019-02-09T22:47:01.839Z,6.63
2019-02-09T22:50:19.527Z,6.69
2019-02-09T22:53:34.711Z,6.74
2019-02-09T22:56:49.950Z,6.74
2019-02-09T23:00:16.083Z,6.71
2019-02-09T23:03:51.783Z,6.73
2019-02-09T23:07:10.767Z,6.87
2019-02-09T23:10:26.152Z,6.84
2019-02-09T23:13:41.609Z,6.81
2019-02-09T23:16:57.764Z,6.90
2019-02-09T23:20:13.243Z,6.89
2019-02-09T23:23:28.591Z,6.77
2019-02-09T23:26:43.839Z,6.71
2019-02-09T23:29:59.293Z,6.78
2019-02-09T23:33:14.851Z,6.58
2019-02-09T23:36:30.308Z,6.56
2019-02-09T23:39:45.461Z,6.55
2019-02-09T23:43:00.615Z,6.52
2019-02-09T23:46:16.165Z,6.53
2019-02-09T23:49:31.418Z,6.48
2019-02-09T23:52:47.557Z,6.52
2019-02-09T23:56:03.043Z,6.42
2019-02-09T23:59:18.954Z,6.38
